Latest Weather Observations for Mackay Airport

IDQ60801

Issued at 12:32 pm EST Wednesday 26 July 2017 (issued every 30 minutes, with the page automatically refreshed every 10 minutes)

About weather observations | Map of weather stations | Latest weather observations for QLD | Other Formats
Station Details ID: 033045 Name: MACKAY AERO Lat: -21.17 Lon: 149.18 Height: 4.7 m
Data from the previous 72 hours. | See also: Recent months at Mackay Airport
Date/Time
EST
Temp
°C
App
Temp
°C
Dew
Point
°C
Rel
Hum
%
Delta-T
°C
Wind Press
QNH
hPa
Press
MSL
hPa
Rain since
9am
mm
Dir  Spd
km/h
Gust
km/h
Spd
kts
Gust
kts
26/12:30pm 23.6 19.3 13.2 52 6.0 ESE 28 32 15 17 1021.1 1021.1 0.0
26/12:00pm 23.8 20.0 13.6 52 5.9 ESE 26 32 14 17 1021.5 1021.5 0.0
26/11:30am 23.7 20.4 14.1 55 5.6 SE 24 30 13 16 1021.8 1021.8 0.0
26/11:00am 23.6 20.6 14.9 58 5.2 SE 24 30 13 16 1022.2 1022.2 0.0
26/10:30am 22.5 19.4 14.4 60 4.8 SE 24 32 13 17 1022.3 1022.3 0.0
26/10:00am 22.3 19.3 14.7 62 4.5 SE 24 28 13 15 1022.3 1022.3 0.0
26/09:30am 21.2 19.5 14.8 67 3.8 SE 17 22 9 12 1022.3 1022.3 0.0
26/08:30am 16.7 15.1 12.8 78 2.2 SW 13 17 7 9 1021.9 1021.9 0.0
26/08:00am 14.9 13.9 12.2 84 1.5 WSW 9 11 5 6 1021.8 1021.8 0.0
26/07:30am 12.8 11.8 11.0 89 0.9 WSW 7 11 4 6 1021.7 1021.7 0.0
26/07:00am 10.6 9.1 9.2 91 0.7 W 7 9 4 5 1021.5 1021.5 0.0
26/06:30am 10.5 8.9 8.8 89 0.8 W 7 9 4 5 1021.3 1021.3 0.0
26/06:00am 11.0 9.2 9.4 90 0.8 W 9 11 5 6 1021.1 1021.1 0.0
26/05:30am 9.7 7.6 8.3 91 0.7 WSW 9 11 5 6 1020.8 1020.8 0.0
26/05:00am 10.0 8.3 8.3 89 0.8 W 7 9 4 5 1020.5 1020.5 0.0
26/04:30am 10.2 7.8 8.8 91 0.7 WSW 11 13 6 7 1020.4 1020.4 0.0
26/04:00am 9.8 7.3 8.2 90 0.8 WSW 11 13 6 7 1020.4 1020.4 0.0
26/03:30am 10.6 8.7 8.9 89 0.8 WSW 9 11 5 6 1020.5 1020.5 0.0
26/03:00am 10.0 8.2 7.8 86 1.1 WSW 7 9 4 5 1020.6 1020.6 0.0
26/02:30am 10.6 8.0 7.7 82 1.4 W 11 13 6 7 1021.0 1021.0 0.0
26/02:00am 11.1 9.3 8.0 81 1.5 W 7 11 4 6 1021.1 1021.1 0.0
26/01:30am 11.2 9.4 7.9 80 1.6 W 7 13 4 7 1021.2 1021.2 0.0
26/01:00am 11.7 10.1 8.6 81 1.5 W 7 11 4 6 1021.4 1021.4 0.0
26/12:30am 12.5 10.8 9.7 83 1.4 W 9 11 5 6 1021.4 1021.4 0.0
26/12:00am 12.6 11.5 10.1 85 1.3 WSW 6 9 3 5 1021.6 1021.6 0.0
 
Date/Time
EST
Temp
°C
App
Temp
°C
Dew
Point
°C
Rel
Hum
%
Delta-T
°C
Wind Press
QNH
hPa
Press
MSL
hPa
Rain since
9am
mm
Dir  Spd
km/h
Gust
km/h
Spd
kts
Gust
kts
25/11:30pm 13.2 11.7 10.7 85 1.3 WSW 9 11 5 6 1021.7 1021.7 0.0
25/11:00pm 14.2 13.1 11.9 86 1.2 SW 9 11 5 6 1021.8 1021.8 0.0
25/10:30pm 13.5 11.8 11.2 86 1.2 SW 11 13 6 7 1021.9 1021.9 0.0
25/10:00pm 13.5 11.7 11.0 85 1.3 SW 11 13 6 7 1021.8 1021.8 0.0
25/09:30pm 14.3 13.1 11.5 83 1.5 SW 9 11 5 6 1021.8 1021.8 0.0
25/09:00pm 14.9 14.4 12.6 86 1.3 SSW 7 11 4 6 1022.0 1022.0 0.0
25/08:30pm 15.3 14.4 12.6 84 1.5 SSW 9 11 5 6 1021.7 1021.7 0.0
25/08:00pm 15.1 13.8 12.4 84 1.5 SSW 11 11 6 6 1021.6 1021.6 0.0
25/07:30pm 15.8 14.8 12.4 80 1.9 S 9 11 5 6 1021.3 1021.3 0.0
25/07:00pm 18.5 18.2 14.4 77 2.4 SE 9 13 5 7 1021.0 1021.0 0.0
25/06:30pm 19.2 17.2 13.8 71 3.1 ESE 17 20 9 11 1020.8 1020.8 0.0
25/06:00pm 19.6 17.0 13.3 67 3.6 ESE 19 24 10 13 1020.6 1020.6 0.0
25/05:30pm 20.5 17.3 12.0 58 4.7 ESE 20 24 11 13 1020.4 1020.4 0.0
25/05:00pm 21.2 18.1 13.4 61 4.5 ESE 22 28 12 15 1020.1 1020.1 0.0
25/04:30pm 21.8 18.4 12.6 56 5.2 ESE 22 30 12 16 1020.1 1020.1 0.0
25/04:00pm 22.5 18.5 11.9 51 5.9 ESE 24 32 13 17 1019.9 1019.9 0.0
25/03:30pm 22.9 18.3 11.0 47 6.6 ESE 26 32 14 17 1019.7 1019.7 0.0
25/03:00pm 23.2 18.3 11.3 47 6.6 SE 28 33 15 18 1019.7 1019.7 0.0
25/02:30pm 24.1 19.4 12.1 47 6.8 SE 28 35 15 19 1019.7 1019.7 0.0
25/02:00pm 23.4 18.8 11.1 46 6.8 SE 26 33 14 18 1020.0 1020.0 0.0
25/01:30pm 23.7 19.3 13.0 51 6.2 SE 28 32 15 17 1020.2 1020.2 0.0
25/01:00pm 24.0 19.6 11.7 46 6.9 SE 26 32 14 17 1020.5 1020.5 0.0
25/12:30pm 24.0 19.2 11.7 46 6.9 SE 28 32 15 17 1020.8 1020.8 0.0
25/12:00pm 23.6 19.6 12.9 51 6.1 SE 26 32 14 17 1021.4 1021.4 0.0
25/11:30am 24.0 20.4 13.2 50 6.3 SE 24 32 13 17 1021.9 1021.9 0.0
25/11:00am 23.7 20.7 14.9 57 5.2 ESE 24 28 13 15 1022.4 1022.4 0.0
25/10:30am 22.7 20.9 16.0 66 4.0 SE 20 28 11 15 1022.7 1022.7 0.0
25/10:00am 22.3 20.7 16.1 68 3.7 SE 19 24 10 13 1022.9 1022.9 0.0
25/09:30am 20.9 20.2 16.5 76 2.7 SSE 15 19 8 10 1023.0 1023.0 0.0
25/09:00am 18.5 18.6 15.4 82 1.8 SSW 9 13 5 7 1023.1 1023.1 0.0
25/08:30am 16.4 16.0 14.2 87 1.3 SW 9 11 5 6 1022.7 1022.7 0.0
25/08:00am 14.6 13.8 13.0 90 0.9 WSW 9 11 5 6 1022.5 1022.5 0.0
25/07:30am 12.7 11.5 11.6 93 0.6 WSW 9 11 5 6 1022.2 1022.2 0.0
25/07:00am 11.3 9.8 10.5 95 0.4 WSW 9 11 5 6 1021.9 1021.9 0.0
25/06:30am 10.7 9.0 9.8 94 0.5 WSW 9 11 5 6 1021.6 1021.6 0.0
25/06:00am 10.5 8.7 9.6 94 0.4 WSW 9 11 5 6 1021.3 1021.3 0.0
25/05:30am 10.6 9.3 9.8 95 0.4 WSW 7 9 4 5 1021.0 1021.0 0.0
25/05:00am 10.8 9.1 9.7 93 0.6 WSW 9 9 5 5 1020.8 1020.8 0.0
25/04:30am 11.3 9.8 10.4 94 0.5 WSW 9 11 5 6 1020.6 1020.6 0.0
25/04:00am 11.6 10.2 10.8 95 0.4 WSW 9 13 5 7 1020.5 1020.5 0.0
25/03:30am 11.1 9.5 10.3 95 0.4 WSW 9 11 5 6 1020.6 1020.6 0.0
25/03:00am 10.7 9.3 9.5 92 0.6 WSW 7 11 4 6 1020.6 1020.6 0.0
25/02:30am 12.2 10.9 11.3 94 0.5 WSW 9 11 5 6 1020.5 1020.5 0.0
25/02:00am 11.7 9.8 10.4 92 0.7 WSW 11 11 6 6 1020.6 1020.6 0.0
25/01:30am 12.0 10.8 10.4 90 0.8 WSW 7 11 4 6 1020.8 1020.8 0.0
25/01:00am 12.9 12.0 11.5 91 0.7 WSW 7 9 4 5 1021.0 1021.0 0.0
25/12:30am 12.8 11.8 11.0 89 0.9 WSW 7 9 4 5 1021.1 1021.1 0.0
25/12:00am 13.4 11.8 11.6 89 1.0 WSW 11 15 6 8 1021.2 1021.2 0.0
 
Date/Time
EST
Temp
°C
App
Temp
°C
Dew
Point
°C
Rel
Hum
%
Delta-T
°C
Wind Press
QNH
hPa
Press
MSL
hPa
Rain since
9am
mm
Dir  Spd
km/h
Gust
km/h
Spd
kts
Gust
kts
24/11:30pm 13.9 12.3 11.6 86 1.2 WSW 11 13 6 7 1021.3 1021.3 0.0
24/11:00pm 14.7 13.1 12.7 88 1.1 SSW 13 15 7 8 1021.4 1021.4 0.0
24/10:30pm 13.9 12.3 11.6 86 1.2 SSW 11 13 6 7 1021.2 1021.2 0.0
24/10:00pm 14.5 13.1 12.2 86 1.2 SSW 11 15 6 8 1021.0 1021.0 0.0
24/09:30pm 15.0 13.3 12.3 84 1.5 SSW 13 15 7 8 1020.9 1020.9 0.0
24/09:00pm 15.6 14.3 13.8 89 1.0 SSW 13 17 7 9 1020.8 1020.8 0.0
24/08:30pm 16.4 16.0 14.1 86 1.3 S 9 11 5 6 1020.6 1020.6 0.0
24/08:00pm 18.9 18.8 16.1 84 1.7 E 11 13 6 7 1020.4 1020.4 0.0
24/07:30pm 19.2 18.8 16.2 83 1.8 E 13 17 7 9 1020.0 1020.0 0.0
24/07:00pm 19.2 18.7 15.9 81 2.0 E 13 17 7 9 1019.7 1019.7 0.0
24/06:30pm 19.7 18.7 15.6 77 2.4 E 15 19 8 10 1019.4 1019.4 0.0
24/06:00pm 20.1 19.1 15.5 75 2.7 E 15 19 8 10 1019.1 1019.1 0.0
24/05:30pm 20.9 18.9 15.4 71 3.3 ESE 20 26 11 14 1018.8 1018.8 0.0
24/05:00pm 21.7 19.9 16.0 70 3.4 ESE 20 26 11 14 1018.6 1018.6 0.0
24/04:30pm 22.4 20.0 16.4 69 3.6 ESE 24 30 13 16 1018.5 1018.5 0.0
24/04:00pm 22.6 19.9 16.6 69 3.7 ESE 26 32 14 17 1018.5 1018.5 0.0
24/03:30pm 22.8 19.6 15.4 63 4.4 ESE 26 32 14 17 1018.4 1018.4 0.0
24/03:00pm 23.6 20.1 15.6 61 4.8 ESE 28 32 15 17 1018.5 1018.5 0.0
24/02:30pm 23.4 20.2 15.2 60 4.9 ESE 26 33 14 18 1018.5 1018.5 0.0
24/02:00pm 23.9 21.7 16.9 65 4.3 ESE 24 30 13 16 1018.7 1018.7 0.0
24/01:30pm 24.2 22.1 17.2 65 4.3 ESE 24 32 13 17 1019.0 1019.0 0.0
24/01:00pm 24.5 21.8 16.7 61 4.8 SE 26 32 14 17 1019.3 1019.3 0.0
24/12:30pm 23.9 21.2 16.7 64 4.4 ESE 26 30 14 16 1019.8 1019.8 0.0
24/12:00pm 24.5 22.5 17.5 65 4.3 ESE 24 30 13 16 1020.3 1020.3 0.0
24/11:30am 23.5 22.5 17.9 71 3.5 ESE 20 24 11 13 1020.7 1020.7 0.0
24/11:00am 24.1 22.5 16.6 63 4.6 ESE 20 24 11 13 1021.1 1021.1 0.0
24/10:30am 23.5 22.9 17.5 69 3.7 SE 17 24 9 13 1021.4 1021.4 0.0
24/10:00am 23.1 22.2 16.9 68 3.8 SE 17 20 9 11 1021.5 1021.5 0.0
24/09:30am 22.3 22.2 17.9 76 2.7 S 15 19 8 10 1021.6 1021.6 0.0
24/09:00am 21.0 21.6 18.6 86 1.5 S 13 17 7 9 1021.6 1021.6 0.0
24/08:30am 18.2 18.5 17.0 93 0.7 SSW 11 13 6 7 1021.3 1021.3 0.0
24/08:00am 16.4 16.5 15.6 95 0.5 SW 9 11 5 6 1021.0 1021.0 0.0
24/07:30am 14.9 14.6 14.4 97 0.3 SW 9 11 5 6 1020.7 1020.7 0.0
24/07:00am 13.7 13.4 13.2 97 0.3 SW 7 11 4 6 1020.3 1020.3 0.0
24/06:30am 13.7 13.0 13.2 97 0.3 SW 9 11 5 6 1020.0 1020.0 0.0
24/06:09am 12.9 11.5 12.3 96 0.3 SW 11 11 6 6 1019.7 1019.7 0.0
24/06:00am 13.2 12.3 12.6 96 0.3 SW 9 11 5 6 1019.5 1019.5 0.0
24/05:30am 13.5 13.1 12.9 96 0.3 SW 7 9 4 5 1019.2 1019.2 0.0
24/05:29am 13.6 13.2 13.0 96 0.3 SW 7 9 4 5 1019.2 1019.2 0.0
24/05:00am 13.8 13.0 13.0 95 0.4 SW 9 9 5 5 1019.0 1019.0 0.0
24/04:30am 14.1 13.4 13.3 95 0.4 SW 9 11 5 6 1018.9 1018.9 0.0
24/04:00am 14.9 14.5 14.1 95 0.4 SW 9 9 5 5 1018.9 1018.9 0.0
24/03:30am 15.1 14.5 14.6 97 0.3 SW 11 13 6 7 1018.8 1018.8 0.0
24/03:00am 14.4 14.3 13.8 96 0.3 SW 7 9 4 5 1018.9 1018.9 0.0
24/02:30am 14.8 14.4 14.2 96 0.3 SW 9 11 5 6 1019.0 1019.0 0.0
24/02:00am 14.7 14.9 14.1 96 0.3 SW 6 7 3 4 1019.1 1019.1 0.0
24/01:30am 14.9 14.9 14.3 96 0.3 SW 7 9 4 5 1019.3 1019.3 0.0
24/01:00am 15.1 14.8 14.5 96 0.3 SW 9 11 5 6 1019.4 1019.4 0.0
24/12:30am 14.6 14.1 13.8 95 0.4 SSW 9 11 5 6 1019.6 1019.6 0.0
24/12:00am 14.9 14.5 14.1 95 0.4 SSW 9 9 5 5 1019.6 1019.6 0.0
 
Date/Time
EST
Temp
°C
App
Temp
°C
Dew
Point
°C
Rel
Hum
%
Delta-T
°C
Wind Press
QNH
hPa
Press
MSL
hPa
Rain since
9am
mm
Dir  Spd
km/h
Gust
km/h
Spd
kts
Gust
kts
23/11:30pm 15.2 14.9 14.4 95 0.5 SSW 9 11 5 6 1019.7 1019.7 0.0
23/11:00pm 14.9 14.9 14.1 95 0.4 SSW 7 9 4 5 1019.7 1019.7 0.0
23/10:30pm 15.3 14.3 14.5 95 0.5 SSW 13 13 7 7 1019.7 1019.7 0.0
23/10:00pm 15.4 14.8 14.6 95 0.5 SSW 11 11 6 6 1019.8 1019.8 0.0
23/09:30pm 15.9 15.9 15.1 95 0.5 SSW 9 9 5 5 1019.8 1019.8 0.0
23/09:00pm 15.8 15.6 14.8 94 0.6 S 9 11 5 6 1019.7 1019.7 0.0
23/08:30pm 16.5 16.6 15.4 93 0.6 S 9 11 5 6 1019.4 1019.4 0.0
23/08:00pm 17.1 17.2 15.6 91 0.9 S 9 11 5 6 1019.3 1019.3 0.0
23/07:30pm 18.7 19.1 16.3 86 1.4 SSE 9 13 5 7 1019.0 1019.0 0.0
23/07:00pm 20.0 20.3 17.8 87 1.4 SSE 13 17 7 9 1018.6 1018.6 0.0
23/06:30pm 20.0 20.6 17.6 86 1.5 SE 11 15 6 8 1018.3 1018.3 0.0
23/06:00pm 20.4 20.3 17.8 85 1.6 SE 15 17 8 9 1017.9 1017.9 0.0
23/05:30pm 21.0 20.4 17.6 81 2.1 SE 17 20 9 11 1017.7 1017.7 0.0
23/05:00pm 22.0 20.5 17.6 76 2.7 SE 22 28 12 15 1017.4 1017.4 0.0
23/04:30pm 22.7 21.2 17.6 73 3.2 SE 22 28 12 15 1017.4 1017.4 0.0
23/04:00pm 22.0 20.4 17.4 75 2.8 ESE 22 26 12 14 1017.4 1017.4 0.0
23/03:30pm 23.3 21.9 18.0 72 3.3 ESE 22 26 12 14 1017.4 1017.4 0.0
23/03:00pm 23.0 20.9 17.2 70 3.6 ESE 24 28 13 15 1017.3 1017.3 0.0
23/02:30pm 22.7 21.2 17.6 73 3.2 ESE 22 28 12 15 1017.4 1017.4 0.0
23/02:00pm 23.5 21.6 16.8 66 4.1 ESE 22 26 12 14 1017.7 1017.7 0.0
23/01:30pm 24.1 22.5 17.4 66 4.2 ESE 22 28 12 15 1018.1 1018.1 0.0
23/01:00pm 24.0 22.9 17.7 68 3.9 ESE 20 24 11 13 1018.5 1018.5 0.0

Other Formats:

Comma delimited format used in spreadsheet applications
http://www.bom.gov.au/fwo/IDQ60801/IDQ60801.95367.axf

JavaScript Object Notation format (JSON) in row-major order
http://www.bom.gov.au/fwo/IDQ60801/IDQ60801.95367.json